sensor_id;sensor_type;location;lat;lon;timestamp;pressure;altitude;pressure_sealevel;temperature;humidity
60371;BME280;48550;40.588;49.684;2023-05-07T00:00:01;101621.78;;;12.60;100.00
60371;BME280;48550;40.588;49.684;2023-05-07T00:02:27;101614.97;;;12.58;100.00
60371;BME280;48550;40.588;49.684;2023-05-07T00:04:52;101610.41;;;12.58;100.00
60371;BME280;48550;40.588;49.684;2023-05-07T00:07:18;101610.19;;;12.60;100.00
60371;BME280;48550;40.588;49.684;2023-05-07T00:09:44;101610.59;;;12.63;100.00
60371;BME280;48550;40.588;49.684;2023-05-07T00:12:10;101617.78;;;12.69;100.00
60371;BME280;48550;40.588;49.684;2023-05-07T00:14:35;101610.53;;;12.70;100.00
60371;BME280;48550;40.588;49.684;2023-05-07T00:17:01;101610.66;;;12.75;100.00
60371;BME280;48550;40.588;49.684;2023-05-07T00:19:27;101610.22;;;12.78;100.00
60371;BME280;48550;40.588;49.684;2023-05-07T00:21:53;101619.72;;;12.81;100.00
60371;BME280;48550;40.588;49.684;2023-05-07T00:24:19;101622.88;;;12.78;100.00
60371;BME280;48550;40.588;49.684;2023-05-07T00:26:45;101614.41;;;12.74;100.00
60371;BME280;48550;40.588;49.684;2023-05-07T00:29:11;101614.41;;;12.74;100.00
60371;BME280;48550;40.588;49.684;2023-05-07T00:31:36;101605.19;;;12.82;100.00
60371;BME280;48550;40.588;49.684;2023-05-07T00:34:02;101607.66;;;12.83;100.00
60371;BME280;48550;40.588;49.684;2023-05-07T00:36:28;101601.91;;;12.80;100.00
60371;BME280;48550;40.588;49.684;2023-05-07T00:38:56;101603.31;;;12.82;100.00
60371;BME280;48550;40.588;49.684;2023-05-07T00:41:22;101599.44;;;12.78;100.00
60371;BME280;48550;40.588;49.684;2023-05-07T00:43:48;101602.13;;;12.78;100.00
60371;BME280;48550;40.588;49.684;2023-05-07T00:46:14;101606.91;;;12.76;100.00
60371;BME280;48550;40.588;49.684;2023-05-07T00:48:41;101605.41;;;12.80;100.00
60371;BME280;48550;40.588;49.684;2023-05-07T00:51:07;101611.25;;;12.77;100.00
60371;BME280;48550;40.588;49.684;2023-05-07T00:53:33;101619.56;;;12.76;100.00
60371;BME280;48550;40.588;49.684;2023-05-07T00:55:59;101614.84;;;12.71;100.00
60371;BME280;48550;40.588;49.684;2023-05-07T00:58:26;101615.75;;;12.65;100.00
60371;BME280;48550;40.588;49.684;2023-05-07T01:00:52;101618.25;;;12.60;100.00
60371;BME280;48550;40.588;49.684;2023-05-07T01:03:17;101610.78;;;12.62;100.00
60371;BME280;48550;40.588;49.684;2023-05-07T01:05:44;101616.81;;;12.64;100.00
60371;BME280;48550;40.588;49.684;2023-05-07T01:08:12;101615.97;;;12.63;100.00
60371;BME280;48550;40.588;49.684;2023-05-07T01:10:39;101615.34;;;12.61;100.00
60371;BME280;48550;40.588;49.684;2023-05-07T01:13:09;101613.94;;;12.59;100.00
60371;BME280;48550;40.588;49.684;2023-05-07T01:15:36;101616.81;;;12.64;100.00
60371;BME280;48550;40.588;49.684;2023-05-07T01:18:02;101616.56;;;12.65;100.00
60371;BME280;48550;40.588;49.684;2023-05-07T01:20:28;101619.88;;;12.67;100.00
60371;BME280;48550;40.588;49.684;2023-05-07T01:22:54;101620.47;;;12.69;100.00
60371;BME280;48550;40.588;49.684;2023-05-07T01:25:21;101628.31;;;12.71;100.00
60371;BME280;48550;40.588;49.684;2023-05-07T01:27:46;101629.75;;;12.73;100.00
60371;BME280;48550;40.588;49.684;2023-05-07T01:30:12;101627.66;;;12.76;100.00
60371;BME280;48550;40.588;49.684;2023-05-07T01:32:47;101624.34;;;12.73;100.00
60371;BME280;48550;40.588;49.684;2023-05-07T01:35:18;101621.44;;;12.75;100.00
60371;BME280;48550;40.588;49.684;2023-05-07T01:37:46;101624.88;;;12.82;100.00
60371;BME280;48550;40.588;49.684;2023-05-07T01:40:13;101627.56;;;12.82;100.00
60371;BME280;48550;40.588;49.684;2023-05-07T01:42:39;101636.84;;;12.86;100.00
60371;BME280;48550;40.588;49.684;2023-05-07T01:45:06;101642.84;;;12.88;100.00
60371;BME280;48550;40.588;49.684;2023-05-07T01:47:32;101646.28;;;12.95;100.00
60371;BME280;48550;40.588;49.684;2023-05-07T01:49:58;101650.16;;;12.99;100.00
60371;BME280;48550;40.588;49.684;2023-05-07T01:52:24;101649.47;;;13.04;100.00
60371;BME280;48550;40.588;49.684;2023-05-07T01:54:50;101644.47;;;13.08;100.00
60371;BME280;48550;40.588;49.684;2023-05-07T01:57:16;101645.81;;;13.17;100.00
60371;BME280;48550;40.588;49.684;2023-05-07T01:59:42;101643.88;;;13.24;100.00
60371;BME280;48550;40.588;49.684;2023-05-07T02:02:07;101643.19;;;13.28;100.00
60371;BME280;48550;40.588;49.684;2023-05-07T02:04:33;101653.88;;;13.35;100.00
60371;BME280;48550;40.588;49.684;2023-05-07T02:06:59;101649.84;;;13.44;100.00
60371;BME280;48550;40.588;49.684;2023-05-07T02:09:24;101653.41;;;13.56;100.00
60371;BME280;48550;40.588;49.684;2023-05-07T02:11:50;101662.94;;;13.71;100.00
60371;BME280;48550;40.588;49.684;2023-05-07T02:14:16;101661.56;;;13.80;100.00
60371;BME280;48550;40.588;49.684;2023-05-07T02:16:42;101667.09;;;13.85;100.00
60371;BME280;48550;40.588;49.684;2023-05-07T02:19:07;101658.28;;;13.89;100.00
60371;BME280;48550;40.588;49.684;2023-05-07T02:21:33;101666.28;;;13.96;100.00
60371;BME280;48550;40.588;49.684;2023-05-07T02:23:59;101657.84;;;14.04;100.00
60371;BME280;48550;40.588;49.684;2023-05-07T02:26:25;101664.44;;;14.08;100.00
60371;BME280;48550;40.588;49.684;2023-05-07T02:28:51;101661.06;;;14.13;100.00
60371;BME280;48550;40.588;49.684;2023-05-07T02:31:17;101664.94;;;14.28;100.00
60371;BME280;48550;40.588;49.684;2023-05-07T02:33:43;101663.91;;;14.53;100.00
60371;BME280;48550;40.588;49.684;2023-05-07T02:36:09;101671.56;;;14.56;100.00
60371;BME280;48550;40.588;49.684;2023-05-07T02:38:36;101672.38;;;14.56;100.00
60371;BME280;48550;40.588;49.684;2023-05-07T02:41:01;101667.91;;;14.62;100.00
60371;BME280;48550;40.588;49.684;2023-05-07T02:43:27;101676.22;;;14.72;100.00
60371;BME280;48550;40.588;49.684;2023-05-07T02:46:04;101676.94;;;14.68;100.00
60371;BME280;48550;40.588;49.684;2023-05-07T02:48:30;101678.47;;;14.87;100.00
60371;BME280;48550;40.588;49.684;2023-05-07T02:50:55;101682.00;;;15.27;100.00
60371;BME280;48550;40.588;49.684;2023-05-07T02:53:21;101681.34;;;15.61;100.00
60371;BME280;48550;40.588;49.684;2023-05-07T02:55:47;101682.13;;;15.89;100.00
60371;BME280;48550;40.588;49.684;2023-05-07T02:58:13;101681.66;;;16.09;100.00
60371;BME280;48550;40.588;49.684;2023-05-07T03:00:38;101676.66;;;16.90;100.00
60371;BME280;48550;40.588;49.684;2023-05-07T03:03:04;101681.91;;;17.89;100.00
60371;BME280;48550;40.588;49.684;2023-05-07T03:05:30;101677.72;;;18.46;100.00
60371;BME280;48550;40.588;49.684;2023-05-07T03:07:56;101674.16;;;19.34;100.00
60371;BME280;48550;40.588;49.684;2023-05-07T03:10:21;101677.38;;;19.31;100.00
60371;BME280;48550;40.588;49.684;2023-05-07T03:12:47;101673.69;;;19.53;100.00
60371;BME280;48550;40.588;49.684;2023-05-07T03:15:13;101678.09;;;19.89;100.00
60371;BME280;48550;40.588;49.684;2023-05-07T03:17:38;101675.09;;;19.86;100.00
60371;BME280;48550;40.588;49.684;2023-05-07T03:20:06;101674.84;;;20.08;100.00
60371;BME280;48550;40.588;49.684;2023-05-07T03:22:32;101675.94;;;20.27;100.00
60371;BME280;48550;40.588;49.684;2023-05-07T03:24:58;101675.31;;;19.59;100.00
60371;BME280;48550;40.588;49.684;2023-05-07T03:27:23;101661.94;;;18.42;100.00
60371;BME280;48550;40.588;49.684;2023-05-07T03:29:52;101659.31;;;17.84;100.00
60371;BME280;48550;40.588;49.684;2023-05-07T03:32:18;101658.16;;;17.79;100.00
60371;BME280;48550;40.588;49.684;2023-05-07T03:34:43;101656.44;;;18.64;100.00
60371;BME280;48550;40.588;49.684;2023-05-07T03:37:09;101658.03;;;19.28;100.00
60371;BME280;48550;40.588;49.684;2023-05-07T03:39:35;101647.50;;;18.37;100.00
60371;BME280;48550;40.588;49.684;2023-05-07T03:42:02;101642.78;;;17.85;100.00
60371;BME280;48550;40.588;49.684;2023-05-07T03:44:28;101641.56;;;17.49;100.00
60371;BME280;48550;40.588;49.684;2023-05-07T03:46:54;101646.28;;;17.59;100.00
60371;BME280;48550;40.588;49.684;2023-05-07T03:49:21;101649.59;;;19.19;100.00
60371;BME280;48550;40.588;49.684;2023-05-07T03:51:46;101650.84;;;20.05;100.00
60371;BME280;48550;40.588;49.684;2023-05-07T03:54:12;101658.41;;;20.84;100.00
60371;BME280;48550;40.588;49.684;2023-05-07T03:56:38;101659.06;;;21.15;100.00
60371;BME280;48550;40.588;49.684;2023-05-07T03:59:04;101667.63;;;20.98;100.00
60371;BME280;48550;40.588;49.684;2023-05-07T04:01:29;101678.94;;;20.41;100.00
60371;BME280;48550;40.588;49.684;2023-05-07T04:03:55;101674.81;;;20.53;100.00
60371;BME280;48550;40.588;49.684;2023-05-07T04:06:24;101671.19;;;21.53;100.00
60371;BME280;48550;40.588;49.684;2023-05-07T04:08:50;101686.03;;;21.81;100.00
60371;BME280;48550;40.588;49.684;2023-05-07T04:11:16;101684.97;;;22.16;100.00
60371;BME280;48550;40.588;49.684;2023-05-07T04:13:42;101692.22;;;21.97;100.00
60371;BME280;48550;40.588;49.684;2023-05-07T04:16:08;101685.53;;;21.24;100.00
60371;BME280;48550;40.588;49.684;2023-05-07T04:18:33;101678.63;;;20.52;100.00
60371;BME280;48550;40.588;49.684;2023-05-07T04:20:59;101669.63;;;20.57;100.00
60371;BME280;48550;40.588;49.684;2023-05-07T04:23:25;101675.06;;;20.67;100.00
60371;BME280;48550;40.588;49.684;2023-05-07T04:25:51;101671.56;;;20.36;100.00
60371;BME280;48550;40.588;49.684;2023-05-07T04:28:16;101673.44;;;20.56;100.00
60371;BME280;48550;40.588;49.684;2023-05-07T04:30:42;101668.25;;;20.65;100.00
60371;BME280;48550;40.588;49.684;2023-05-07T04:33:08;101675.09;;;19.91;100.00
60371;BME280;48550;40.588;49.684;2023-05-07T04:35:34;101671.47;;;19.50;100.00
60371;BME280;48550;40.588;49.684;2023-05-07T04:38:00;101670.19;;;19.83;100.00
60371;BME280;48550;40.588;49.684;2023-05-07T04:40:26;101671.03;;;20.14;100.00
60371;BME280;48550;40.588;49.684;2023-05-07T04:42:52;101684.28;;;20.91;100.00
60371;BME280;48550;40.588;49.684;2023-05-07T04:45:18;101687.91;;;20.26;100.00
60371;BME280;48550;40.588;49.684;2023-05-07T04:47:44;101683.47;;;20.91;100.00
60371;BME280;48550;40.588;49.684;2023-05-07T04:50:10;101681.44;;;21.22;100.00
60371;BME280;48550;40.588;49.684;2023-05-07T04:52:36;101677.72;;;20.98;100.00
60371;BME280;48550;40.588;49.684;2023-05-07T04:55:02;101682.00;;;21.73;100.00
60371;BME280;48550;40.588;49.684;2023-05-07T04:57:28;101681.00;;;22.61;100.00
60371;BME280;48550;40.588;49.684;2023-05-07T04:59:54;101682.44;;;22.82;100.00
60371;BME280;48550;40.588;49.684;2023-05-07T05:02:19;101691.63;;;22.92;98.48
60371;BME280;48550;40.588;49.684;2023-05-07T05:04:45;101691.31;;;22.69;96.83
60371;BME280;48550;40.588;49.684;2023-05-07T05:07:11;101682.94;;;22.32;100.00
60371;BME280;48550;40.588;49.684;2023-05-07T05:09:37;101687.72;;;22.16;99.64
60371;BME280;48550;40.588;49.684;2023-05-07T05:12:03;101684.53;;;22.04;100.00
60371;BME280;48550;40.588;49.684;2023-05-07T05:14:29;101685.06;;;22.01;100.00
60371;BME280;48550;40.588;49.684;2023-05-07T05:16:55;101683.03;;;21.33;100.00
60371;BME280;48550;40.588;49.684;2023-05-07T05:19:20;101676.75;;;21.33;100.00
60371;BME280;48550;40.588;49.684;2023-05-07T05:21:46;101686.50;;;21.49;100.00
60371;BME280;48550;40.588;49.684;2023-05-07T05:24:12;101684.66;;;21.83;100.00
60371;BME280;48550;40.588;49.684;2023-05-07T05:26:38;101685.31;;;22.67;90.92
60371;BME280;48550;40.588;49.684;2023-05-07T05:29:03;101665.31;;;22.14;97.09
60371;BME280;48550;40.588;49.684;2023-05-07T05:31:29;101674.94;;;23.73;76.83
60371;BME280;48550;40.588;49.684;2023-05-07T05:33:55;101672.94;;;23.41;80.45
60371;BME280;48550;40.588;49.684;2023-05-07T05:36:21;101679.03;;;23.57;73.01
60371;BME280;48550;40.588;49.684;2023-05-07T05:38:46;101667.75;;;22.97;81.01
60371;BME280;48550;40.588;49.684;2023-05-07T05:41:12;101673.56;;;22.67;85.22
60371;BME280;48550;40.588;49.684;2023-05-07T05:43:38;101671.56;;;22.72;85.80
60371;BME280;48550;40.588;49.684;2023-05-07T05:46:03;101669.50;;;21.62;98.50
60371;BME280;48550;40.588;49.684;2023-05-07T05:48:34;101670.25;;;22.12;88.71
60371;BME280;48550;40.588;49.684;2023-05-07T05:50:59;101672.84;;;21.49;98.32
60371;BME280;48550;40.588;49.684;2023-05-07T05:53:25;101671.91;;;21.14;100.00
60371;BME280;48550;40.588;49.684;2023-05-07T05:55:51;101674.81;;;20.33;100.00
60371;BME280;48550;40.588;49.684;2023-05-07T05:58:17;101669.31;;;20.69;100.00
60371;BME280;48550;40.588;49.684;2023-05-07T06:00:43;101670.59;;;21.02;92.34
60371;BME280;48550;40.588;49.684;2023-05-07T06:03:09;101676.59;;;21.04;89.65
60371;BME280;48550;40.588;49.684;2023-05-07T06:05:35;101671.56;;;21.80;78.65
60371;BME280;48550;40.588;49.684;2023-05-07T06:08:01;101683.66;;;21.15;87.38
60371;BME280;48550;40.588;49.684;2023-05-07T06:10:27;101677.19;;;22.28;74.80
60371;BME280;48550;40.588;49.684;2023-05-07T06:12:53;101674.69;;;22.90;68.32
60371;BME280;48550;40.588;49.684;2023-05-07T06:15:19;101668.72;;;23.49;62.72
60371;BME280;48550;40.588;49.684;2023-05-07T06:17:45;101677.75;;;23.50;62.87
60371;BME280;48550;40.588;49.684;2023-05-07T06:20:10;101676.91;;;22.88;66.46
60371;BME280;48550;40.588;49.684;2023-05-07T06:22:36;101670.44;;;24.15;60.45
60371;BME280;48550;40.588;49.684;2023-05-07T06:25:02;101674.53;;;23.85;59.11
60371;BME280;48550;40.588;49.684;2023-05-07T06:27:28;101681.22;;;24.12;58.17
60371;BME280;48550;40.588;49.684;2023-05-07T06:29:53;101680.00;;;24.18;58.70
60371;BME280;48550;40.588;49.684;2023-05-07T06:32:19;101681.41;;;23.83;60.83
60371;BME280;48550;40.588;49.684;2023-05-07T06:34:45;101672.06;;;24.16;57.79
60371;BME280;48550;40.588;49.684;2023-05-07T06:37:11;101670.25;;;23.36;62.93
60371;BME280;48550;40.588;49.684;2023-05-07T06:39:37;101677.56;;;23.84;70.38
60371;BME280;48550;40.588;49.684;2023-05-07T06:42:02;101674.88;;;23.60;64.86
60371;BME280;48550;40.588;49.684;2023-05-07T06:44:30;101677.28;;;24.64;56.30
60371;BME280;48550;40.588;49.684;2023-05-07T06:46:56;101671.91;;;24.26;58.02
60371;BME280;48550;40.588;49.684;2023-05-07T06:49:22;101673.19;;;23.83;58.07
60371;BME280;48550;40.588;49.684;2023-05-07T06:51:48;101672.31;;;24.93;53.96
60371;BME280;48550;40.588;49.684;2023-05-07T06:54:13;101675.56;;;25.23;51.03
60371;BME280;48550;40.588;49.684;2023-05-07T06:56:39;101674.66;;;24.86;52.92
60371;BME280;48550;40.588;49.684;2023-05-07T06:59:06;101677.31;;;25.05;52.90
60371;BME280;48550;40.588;49.684;2023-05-07T07:01:32;101684.81;;;24.86;53.76
60371;BME280;48550;40.588;49.684;2023-05-07T07:03:57;101677.91;;;24.61;54.20
60371;BME280;48550;40.588;49.684;2023-05-07T07:06:23;101673.00;;;24.25;56.08
60371;BME280;48550;40.588;49.684;2023-05-07T07:08:49;101684.97;;;24.48;55.80
60371;BME280;48550;40.588;49.684;2023-05-07T07:11:15;101682.81;;;23.80;57.01
60371;BME280;48550;40.588;49.684;2023-05-07T07:13:41;101675.22;;;23.53;58.80
60371;BME280;48550;40.588;49.684;2023-05-07T07:16:08;101678.91;;;23.25;62.12
60371;BME280;48550;40.588;49.684;2023-05-07T07:18:34;101671.34;;;23.59;59.41
60371;BME280;48550;40.588;49.684;2023-05-07T07:20:59;101675.66;;;23.41;59.85
60371;BME280;48550;40.588;49.684;2023-05-07T07:23:25;101663.16;;;24.84;55.00
60371;BME280;48550;40.588;49.684;2023-05-07T07:25:51;101673.31;;;23.91;57.46
60371;BME280;48550;40.588;49.684;2023-05-07T07:28:17;101670.06;;;24.54;54.89
60371;BME280;48550;40.588;49.684;2023-05-07T07:30:43;101683.00;;;24.81;54.97
60371;BME280;48550;40.588;49.684;2023-05-07T07:33:08;101683.56;;;24.51;53.97
60371;BME280;48550;40.588;49.684;2023-05-07T07:35:34;101671.56;;;24.47;55.38
60371;BME280;48550;40.588;49.684;2023-05-07T07:38:00;101668.66;;;25.12;52.37
60371;BME280;48550;40.588;49.684;2023-05-07T07:40:26;101661.75;;;24.73;54.08
60371;BME280;48550;40.588;49.684;2023-05-07T07:42:53;101657.97;;;23.53;59.03
60371;BME280;48550;40.588;49.684;2023-05-07T07:45:19;101638.50;;;23.17;62.35
60371;BME280;48550;40.588;49.684;2023-05-07T07:47:45;101649.84;;;22.28;67.50
60371;BME280;48550;40.588;49.684;2023-05-07T07:50:11;101638.84;;;21.70;70.52
60371;BME280;48550;40.588;49.684;2023-05-07T07:52:37;101633.13;;;21.67;74.34
60371;BME280;48550;40.588;49.684;2023-05-07T07:55:03;101647.44;;;21.48;76.04
60371;BME280;48550;40.588;49.684;2023-05-07T07:57:29;101634.84;;;21.52;74.56
60371;BME280;48550;40.588;49.684;2023-05-07T07:59:55;101638.47;;;21.43;73.95
60371;BME280;48550;40.588;49.684;2023-05-07T08:02:21;101624.28;;;21.41;77.09
60371;BME280;48550;40.588;49.684;2023-05-07T08:04:47;101621.31;;;21.37;75.08
60371;BME280;48550;40.588;49.684;2023-05-07T08:07:13;101622.78;;;21.14;76.93
60371;BME280;48550;40.588;49.684;2023-05-07T08:09:39;101622.34;;;20.92;78.69
60371;BME280;48550;40.588;49.684;2023-05-07T08:12:06;101610.44;;;21.27;78.05
60371;BME280;48550;40.588;49.684;2023-05-07T08:14:32;101609.44;;;21.57;72.27
60371;BME280;48550;40.588;49.684;2023-05-07T08:16:58;101593.91;;;21.47;73.49
60371;BME280;48550;40.588;49.684;2023-05-07T08:19:24;101600.16;;;21.53;75.76
60371;BME280;48550;40.588;49.684;2023-05-07T08:21:50;101592.50;;;21.55;73.03
60371;BME280;48550;40.588;49.684;2023-05-07T08:24:16;101592.28;;;21.46;74.33
60371;BME280;48550;40.588;49.684;2023-05-07T08:26:43;101596.50;;;21.29;76.48
60371;BME280;48550;40.588;49.684;2023-05-07T08:29:09;101575.13;;;20.91;74.37
60371;BME280;48550;40.588;49.684;2023-05-07T08:31:35;101581.78;;;21.24;74.76
60371;BME280;48550;40.588;49.684;2023-05-07T08:34:01;101580.25;;;21.03;75.58
60371;BME280;48550;40.588;49.684;2023-05-07T08:36:26;101569.97;;;20.80;78.04
60371;BME280;48550;40.588;49.684;2023-05-07T08:38:53;101565.09;;;20.77;79.05
60371;BME280;48550;40.588;49.684;2023-05-07T08:41:18;101564.28;;;20.76;80.57
60371;BME280;48550;40.588;49.684;2023-05-07T08:43:48;101553.06;;;20.88;78.03
60371;BME280;48550;40.588;49.684;2023-05-07T08:46:21;101556.91;;;20.82;77.89
60371;BME280;48550;40.588;49.684;2023-05-07T08:48:51;101552.25;;;20.82;78.15
60371;BME280;48550;40.588;49.684;2023-05-07T08:51:21;101537.38;;;20.54;74.60
60371;BME280;48550;40.588;49.684;2023-05-07T08:53:48;101533.06;;;20.43;77.25
60371;BME280;48550;40.588;49.684;2023-05-07T08:56:14;101528.63;;;20.57;75.27
60371;BME280;48550;40.588;49.684;2023-05-07T08:58:44;101539.16;;;20.84;73.66
60371;BME280;48550;40.588;49.684;2023-05-07T09:01:14;101531.59;;;20.61;75.08
60371;BME280;48550;40.588;49.684;2023-05-07T09:03:42;101517.59;;;20.78;78.12
60371;BME280;48550;40.588;49.684;2023-05-07T09:06:09;101516.25;;;20.75;76.94
60371;BME280;48550;40.588;49.684;2023-05-07T09:08:35;101508.72;;;21.06;75.61
60371;BME280;48550;40.588;49.684;2023-05-07T09:11:02;101514.63;;;21.23;72.84
60371;BME280;48550;40.588;49.684;2023-05-07T09:13:28;101532.59;;;21.30;72.94
60371;BME280;48550;40.588;49.684;2023-05-07T09:15:55;101541.88;;;21.34;71.22
60371;BME280;48550;40.588;49.684;2023-05-07T09:18:20;101533.91;;;21.37;71.28
60371;BME280;48550;40.588;49.684;2023-05-07T09:20:46;101528.97;;;21.73;69.61
60371;BME280;48550;40.588;49.684;2023-05-07T09:23:12;101528.78;;;21.94;67.86
60371;BME280;48550;40.588;49.684;2023-05-07T09:25:37;101516.75;;;21.32;69.94
60371;BME280;48550;40.588;49.684;2023-05-07T09:28:04;101541.16;;;21.57;68.31
60371;BME280;48550;40.588;49.684;2023-05-07T09:30:33;101543.31;;;21.60;68.78
60371;BME280;48550;40.588;49.684;2023-05-07T09:33:00;101544.31;;;21.69;67.67
60371;BME280;48550;40.588;49.684;2023-05-07T09:35:26;101543.03;;;21.62;65.60
60371;BME280;48550;40.588;49.684;2023-05-07T09:37:57;101550.94;;;21.63;64.97
60371;BME280;48550;40.588;49.684;2023-05-07T09:40:28;101546.91;;;21.55;63.53
60371;BME280;48550;40.588;49.684;2023-05-07T09:42:54;101551.63;;;21.79;62.48
60371;BME280;48550;40.588;49.684;2023-05-07T09:45:26;101559.63;;;21.70;62.37
60371;BME280;48550;40.588;49.684;2023-05-07T09:47:57;101555.44;;;21.78;60.88
60371;BME280;48550;40.588;49.684;2023-05-07T09:50:29;101553.19;;;21.51;63.07
60371;BME280;48550;40.588;49.684;2023-05-07T09:52:56;101543.66;;;21.48;62.01
60371;BME280;48550;40.588;49.684;2023-05-07T09:55:23;101550.34;;;21.32;64.81
60371;BME280;48550;40.588;49.684;2023-05-07T09:57:53;101567.03;;;21.20;64.77
60371;BME280;48550;40.588;49.684;2023-05-07T10:00:22;101569.38;;;20.98;66.24
60371;BME280;48550;40.588;49.684;2023-05-07T10:02:50;101567.16;;;21.05;66.55
60371;BME280;48550;40.588;49.684;2023-05-07T10:05:21;101562.69;;;21.19;61.33
60371;BME280;48550;40.588;49.684;2023-05-07T10:07:48;101574.16;;;21.16;63.07
60371;BME280;48550;40.588;49.684;2023-05-07T10:10:15;101567.53;;;21.33;63.42
60371;BME280;48550;40.588;49.684;2023-05-07T10:12:41;101574.06;;;21.37;62.54
60371;BME280;48550;40.588;49.684;2023-05-07T10:15:08;101589.56;;;21.46;60.30
60371;BME280;48550;40.588;49.684;2023-05-07T10:17:38;101594.81;;;21.77;59.99
60371;BME280;48550;40.588;49.684;2023-05-07T10:20:06;101603.94;;;21.62;59.26
60371;BME280;48550;40.588;49.684;2023-05-07T10:22:38;101595.13;;;21.70;60.64
60371;BME280;48550;40.588;49.684;2023-05-07T10:25:06;101595.78;;;21.57;61.32
60371;BME280;48550;40.588;49.684;2023-05-07T10:27:36;101595.25;;;21.50;62.90
60371;BME280;48550;40.588;49.684;2023-05-07T10:30:24;101582.09;;;21.62;64.73
60371;BME280;48550;40.588;49.684;2023-05-07T10:32:55;101584.13;;;21.41;66.35
60371;BME280;48550;40.588;49.684;2023-05-07T10:35:26;101576.19;;;21.45;66.04
60371;BME280;48550;40.588;49.684;2023-05-07T10:37:52;101566.41;;;21.39;65.75
60371;BME280;48550;40.588;49.684;2023-05-07T10:40:20;101565.97;;;21.16;70.14
60371;BME280;48550;40.588;49.684;2023-05-07T10:43:01;101556.88;;;21.70;68.24
60371;BME280;48550;40.588;49.684;2023-05-07T10:45:28;101554.16;;;21.70;62.78
60371;BME280;48550;40.588;49.684;2023-05-07T10:48:08;101533.78;;;21.86;60.78
60371;BME280;48550;40.588;49.684;2023-05-07T10:50:35;101532.97;;;21.86;57.68
60371;BME280;48550;40.588;49.684;2023-05-07T10:55:49;101519.69;;;21.74;58.79
60371;BME280;48550;40.588;49.684;2023-05-07T11:00:48;101531.19;;;21.71;56.73
60371;BME280;48550;40.588;49.684;2023-05-07T11:03:14;101519.63;;;21.79;54.83
60371;BME280;48550;40.588;49.684;2023-05-07T11:05:41;101516.50;;;21.91;50.87
60371;BME280;48550;40.588;49.684;2023-05-07T11:08:08;101519.41;;;22.05;48.95
60371;BME280;48550;40.588;49.684;2023-05-07T11:10:54;101516.44;;;22.25;47.17
60371;BME280;48550;40.588;49.684;2023-05-07T11:13:46;101520.03;;;22.20;45.55
60371;BME280;48550;40.588;49.684;2023-05-07T11:16:28;101522.31;;;22.13;46.96
60371;BME280;48550;40.588;49.684;2023-05-07T11:18:55;101526.44;;;22.11;47.94
60371;BME280;48550;40.588;49.684;2023-05-07T11:21:35;101517.38;;;22.15;47.78
60371;BME280;48550;40.588;49.684;2023-05-07T11:24:02;101513.97;;;22.00;48.53
60371;BME280;48550;40.588;49.684;2023-05-07T11:26:45;101516.78;;;22.18;48.66
60371;BME280;48550;40.588;49.684;2023-05-07T11:29:19;101508.13;;;21.82;49.32
60371;BME280;48550;40.588;49.684;2023-05-07T11:31:49;101504.09;;;21.75;50.15
60371;BME280;48550;40.588;49.684;2023-05-07T11:34:23;101503.59;;;21.97;51.06
60371;BME280;48550;40.588;49.684;2023-05-07T11:36:49;101491.78;;;21.77;53.79
60371;BME280;48550;40.588;49.684;2023-05-07T11:39:26;101500.81;;;21.44;55.75
60371;BME280;48550;40.588;49.684;2023-05-07T11:41:52;101503.81;;;21.76;56.60
60371;BME280;48550;40.588;49.684;2023-05-07T11:44:18;101503.88;;;21.71;58.66
60371;BME280;48550;40.588;49.684;2023-05-07T11:46:44;101498.75;;;21.65;61.28
60371;BME280;48550;40.588;49.684;2023-05-07T11:49:10;101497.41;;;21.62;61.29
60371;BME280;48550;40.588;49.684;2023-05-07T11:51:36;101495.44;;;21.68;60.89
60371;BME280;48550;40.588;49.684;2023-05-07T11:54:05;101485.97;;;21.84;60.63
60371;BME280;48550;40.588;49.684;2023-05-07T11:56:34;101483.59;;;21.77;58.33
60371;BME280;48550;40.588;49.684;2023-05-07T11:59:01;101484.81;;;21.90;58.08
60371;BME280;48550;40.588;49.684;2023-05-07T12:01:26;101484.00;;;21.89;55.75
60371;BME280;48550;40.588;49.684;2023-05-07T12:03:52;101482.72;;;21.82;52.85
60371;BME280;48550;40.588;49.684;2023-05-07T12:06:19;101491.81;;;22.01;52.59
60371;BME280;48550;40.588;49.684;2023-05-07T12:08:46;101491.59;;;22.22;52.92
60371;BME280;48550;40.588;49.684;2023-05-07T12:11:29;101469.50;;;22.18;49.78
60371;BME280;48550;40.588;49.684;2023-05-07T12:13:55;101471.47;;;22.12;50.25
60371;BME280;48550;40.588;49.684;2023-05-07T12:16:21;101478.34;;;22.10;49.94
60371;BME280;48550;40.588;49.684;2023-05-07T12:18:47;101477.75;;;22.13;50.57
60371;BME280;48550;40.588;49.684;2023-05-07T12:21:13;101469.50;;;22.18;50.55
60371;BME280;48550;40.588;49.684;2023-05-07T12:23:39;101467.06;;;22.16;50.50
60371;BME280;48550;40.588;49.684;2023-05-07T12:26:05;101459.19;;;22.10;50.49
60371;BME280;48550;40.588;49.684;2023-05-07T12:28:31;101453.41;;;21.87;50.11
60371;BME280;48550;40.588;49.684;2023-05-07T12:31:01;101457.00;;;22.12;50.41
60371;BME280;48550;40.588;49.684;2023-05-07T12:33:27;101441.09;;;21.90;50.84
60371;BME280;48550;40.588;49.684;2023-05-07T12:35:55;101437.59;;;21.84;50.40
60371;BME280;48550;40.588;49.684;2023-05-07T12:38:21;101429.34;;;21.66;50.97